createdAt,value
2019-01-19T00:00:57.708Z,1021.43
2019-01-19T00:01:57.545Z,1021.44
2019-01-19T00:02:57.625Z,1021.44
2019-01-19T00:03:57.677Z,1021.49
2019-01-19T00:04:57.532Z,1021.44
2019-01-19T00:05:57.904Z,1021.44
2019-01-19T00:06:57.588Z,1021.5
2019-01-19T00:07:57.572Z,1021.45
2019-01-19T00:08:57.650Z,1021.48
2019-01-19T00:09:57.584Z,1021.41
2019-01-19T00:10:57.734Z,1021.41
2019-01-19T00:11:57.631Z,1021.43
2019-01-19T00:12:57.675Z,1021.41
2019-01-19T00:13:57.581Z,1021.42
2019-01-19T00:14:57.770Z,1021.39
2019-01-19T00:15:57.750Z,1021.38
2019-01-19T00:16:57.645Z,1021.38
2019-01-19T00:17:57.784Z,1021.35
2019-01-19T00:18:57.869Z,1021.35
2019-01-19T00:19:57.697Z,1021.36
2019-01-19T00:20:57.543Z,1021.31
2019-01-19T00:21:58.007Z,1021.34
2019-01-19T00:22:57.894Z,1021.34
2019-01-19T00:23:57.606Z,1021.32
2019-01-19T00:24:57.870Z,1021.28
2019-01-19T00:25:57.639Z,1021.28
2019-01-19T00:26:57.774Z,1021.26
2019-01-19T00:27:57.866Z,1021.28
2019-01-19T00:28:58.282Z,1021.28
2019-01-19T00:29:57.822Z,1021.28
2019-01-19T00:30:57.923Z,1021.27
2019-01-19T00:31:58.163Z,1021.29
2019-01-19T00:32:57.848Z,1021.23
2019-01-19T00:33:57.769Z,1021.22
2019-01-19T00:34:57.669Z,1021.25
2019-01-19T00:35:57.589Z,1021.23
2019-01-19T00:36:57.796Z,1021.23
2019-01-19T00:37:57.635Z,1021.16
2019-01-19T00:38:58.055Z,1021.2
2019-01-19T00:39:57.728Z,1021.19
2019-01-19T00:40:58.106Z,1021.18
2019-01-19T00:41:59.436Z,1021.18
2019-01-19T00:42:58.642Z,1021.13
2019-01-19T00:43:58.460Z,1021.18
2019-01-19T00:44:57.796Z,1021.18
2019-01-19T00:45:57.981Z,1021.16
2019-01-19T00:46:58.055Z,1021.13
2019-01-19T00:47:59.433Z,1021.14
2019-01-19T00:48:57.994Z,1021.14
2019-01-19T00:49:57.471Z,1021.14
2019-01-19T00:50:57.597Z,1021.1
2019-01-19T00:51:57.759Z,1021.13
2019-01-19T00:52:59.116Z,1021.08
2019-01-19T00:53:57.520Z,1021.1
2019-01-19T00:54:57.650Z,1021.1
2019-01-19T00:55:57.780Z,1021.11
2019-01-19T00:56:57.490Z,1021.1
2019-01-19T00:57:57.840Z,1021.13
2019-01-19T00:58:57.637Z,1021.12
2019-01-19T00:59:57.500Z,1021.15
2019-01-19T01:00:57.922Z,1021.11
2019-01-19T01:01:57.708Z,1021.11
2019-01-19T01:02:57.505Z,1021.13
2019-01-19T01:03:57.684Z,1021.12
2019-01-19T01:04:57.809Z,1021.14
2019-01-19T01:05:57.540Z,1021.08
2019-01-19T01:06:57.622Z,1021.1
2019-01-19T01:07:57.603Z,1021.09
2019-01-19T01:08:59.372Z,1021.09
2019-01-19T01:09:57.628Z,1021.08
2019-01-19T01:10:57.873Z,1021.08
2019-01-19T01:11:57.993Z,1021.09
2019-01-19T01:12:57.596Z,1021.1
2019-01-19T01:13:58.019Z,1021.07
2019-01-19T01:14:57.698Z,1021.09
2019-01-19T01:15:57.882Z,1021.07
2019-01-19T01:16:57.673Z,1021.13
2019-01-19T01:17:59.372Z,1021.14
2019-01-19T01:18:58.021Z,1021.11
2019-01-19T01:19:57.944Z,1021.14
2019-01-19T01:20:57.727Z,1021.1
2019-01-19T01:21:58.029Z,1021.1
2019-01-19T01:22:57.947Z,1021.14
2019-01-19T01:23:57.749Z,1021.1
2019-01-19T01:24:57.780Z,1021.11
2019-01-19T01:25:58.140Z,1021.14
2019-01-19T01:26:57.765Z,1021.14
2019-01-19T01:27:57.780Z,1021.14
2019-01-19T01:28:57.453Z,1021.17
2019-01-19T01:29:57.794Z,1021.19
2019-01-19T01:30:57.649Z,1021.14
2019-01-19T01:31:57.988Z,1021.17
2019-01-19T01:32:57.664Z,1021.14
2019-01-19T01:33:57.491Z,1021.15
2019-01-19T01:34:57.947Z,1021.14
2019-01-19T01:35:57.739Z,1021.12
2019-01-19T01:36:57.854Z,1021.11
2019-01-19T01:37:57.472Z,1021.1
2019-01-19T01:38:57.634Z,1021.1
2019-01-19T01:39:57.683Z,1021.1
2019-01-19T01:40:57.999Z,1021.09
2019-01-19T01:41:58.068Z,1021.07
2019-01-19T01:42:57.911Z,1021.09
2019-01-19T01:43:57.436Z,1021.07
2019-01-19T01:44:57.561Z,1021.1
2019-01-19T01:45:57.648Z,1021.09
2019-01-19T01:46:57.685Z,1021.07
2019-01-19T01:47:57.716Z,1021.07
2019-01-19T01:48:57.644Z,1021.04
2019-01-19T01:49:57.358Z,1021.07
2019-01-19T01:50:57.566Z,1021.01
2019-01-19T01:51:57.616Z,1021.01
2019-01-19T01:52:57.658Z,1020.98
2019-01-19T01:53:57.655Z,1020.98
2019-01-19T01:54:57.629Z,1021.01
2019-01-19T01:55:57.639Z,1020.97
2019-01-19T01:56:57.536Z,1020.98
2019-01-19T01:57:57.529Z,1020.99
2019-01-19T01:58:57.696Z,1021
2019-01-19T01:59:57.681Z,1021.02
2019-01-19T02:00:57.657Z,1020.96
2019-01-19T02:01:57.725Z,1020.96
2019-01-19T02:02:57.755Z,1020.98
2019-01-19T02:03:57.881Z,1020.97
2019-01-19T02:04:58.323Z,1020.96
2019-01-19T02:05:58.535Z,1020.92
2019-01-19T02:06:57.749Z,1020.91
2019-01-19T02:07:57.856Z,1020.93
2019-01-19T02:08:57.894Z,1020.93
2019-01-19T02:09:57.633Z,1020.95
2019-01-19T02:10:57.657Z,1020.92
2019-01-19T02:11:57.521Z,1020.9
2019-01-19T02:12:57.781Z,1020.89
2019-01-19T02:13:57.646Z,1020.88
2019-01-19T02:14:57.802Z,1020.88
2019-01-19T02:15:57.618Z,1020.88
2019-01-19T02:16:57.644Z,1020.84
2019-01-19T02:17:57.424Z,1020.85
2019-01-19T02:18:57.681Z,1020.85
2019-01-19T02:19:57.615Z,1020.86
2019-01-19T02:20:57.871Z,1020.85
2019-01-19T02:21:57.858Z,1020.88
2019-01-19T02:22:57.586Z,1020.87
2019-01-19T02:23:57.504Z,1020.85
2019-01-19T02:24:57.469Z,1020.85
2019-01-19T02:25:57.781Z,1020.8
2019-01-19T02:26:57.659Z,1020.84
2019-01-19T02:27:57.814Z,1020.83
2019-01-19T02:28:57.588Z,1020.84
2019-01-19T02:29:57.745Z,1020.79
2019-01-19T02:30:57.569Z,1020.8
2019-01-19T02:31:57.598Z,1020.79
2019-01-19T02:32:57.639Z,1020.77
2019-01-19T02:33:57.654Z,1020.79
2019-01-19T02:34:57.876Z,1020.8
2019-01-19T02:35:57.472Z,1020.78
2019-01-19T02:36:57.486Z,1020.76
2019-01-19T02:37:57.880Z,1020.76
2019-01-19T02:38:57.748Z,1020.77
2019-01-19T02:39:57.747Z,1020.74
2019-01-19T02:40:57.685Z,1020.73
2019-01-19T02:41:57.552Z,1020.73
2019-01-19T02:42:57.661Z,1020.71
2019-01-19T02:43:57.810Z,1020.72
2019-01-19T02:44:57.499Z,1020.68
2019-01-19T02:45:58.276Z,1020.7
2019-01-19T02:46:58.049Z,1020.72
2019-01-19T02:47:57.741Z,1020.68
2019-01-19T02:48:57.833Z,1020.65
2019-01-19T02:49:57.610Z,1020.67
2019-01-19T02:50:57.559Z,1020.65
2019-01-19T02:51:57.686Z,1020.65
2019-01-19T02:52:57.794Z,1020.66
2019-01-19T02:53:57.948Z,1020.66
2019-01-19T02:54:57.619Z,1020.65
2019-01-19T02:55:58.303Z,1020.61
2019-01-19T02:56:57.752Z,1020.63
2019-01-19T02:57:58.038Z,1020.64
2019-01-19T02:58:57.611Z,1020.63
2019-01-19T02:59:59.478Z,1020.62
2019-01-19T03:00:57.482Z,1020.6
2019-01-19T03:01:57.554Z,1020.6
2019-01-19T03:02:57.626Z,1020.6
2019-01-19T03:03:57.390Z,1020.57
2019-01-19T03:04:58.579Z,1020.57
2019-01-19T03:05:57.577Z,1020.54
2019-01-19T03:06:57.489Z,1020.55
2019-01-19T03:07:57.557Z,1020.54
2019-01-19T03:08:57.656Z,1020.55
2019-01-19T03:09:57.914Z,1020.54
2019-01-19T03:10:57.933Z,1020.53
2019-01-19T03:11:57.554Z,1020.5
2019-01-19T03:12:57.507Z,1020.51
2019-01-19T03:13:57.799Z,1020.48
2019-01-19T03:14:57.932Z,1020.5
2019-01-19T03:15:57.997Z,1020.51
2019-01-19T03:16:57.540Z,1020.5
2019-01-19T03:17:57.847Z,1020.5
2019-01-19T03:18:57.565Z,1020.51
2019-01-19T03:19:57.560Z,1020.5
2019-01-19T03:20:57.753Z,1020.5
2019-01-19T03:21:57.569Z,1020.47
2019-01-19T03:22:57.951Z,1020.5
2019-01-19T03:23:57.598Z,1020.47
2019-01-19T03:24:57.391Z,1020.5
2019-01-19T03:25:57.590Z,1020.51
2019-01-19T03:26:57.913Z,1020.5
2019-01-19T03:27:57.611Z,1020.48
2019-01-19T03:28:57.750Z,1020.49
2019-01-19T03:29:57.682Z,1020.48
2019-01-19T03:30:57.773Z,1020.48
2019-01-19T03:31:57.581Z,1020.5
2019-01-19T03:32:58.151Z,1020.48
2019-01-19T03:33:57.630Z,1020.49
2019-01-19T03:34:57.597Z,1020.43
2019-01-19T03:36:04.838Z,1020.47
2019-01-19T03:36:57.558Z,1020.45
2019-01-19T03:37:57.562Z,1020.44
2019-01-19T03:38:57.564Z,1020.44
2019-01-19T03:39:57.545Z,1020.44
2019-01-19T03:40:57.474Z,1020.43
2019-01-19T03:41:57.634Z,1020.43
2019-01-19T03:42:57.396Z,1020.44
2019-01-19T03:43:58.162Z,1020.44
2019-01-19T03:44:57.565Z,1020.42
2019-01-19T03:45:57.561Z,1020.37
2019-01-19T03:46:57.849Z,1020.34
2019-01-19T03:47:57.677Z,1020.38
2019-01-19T03:48:57.706Z,1020.36
2019-01-19T03:49:57.845Z,1020.37
2019-01-19T03:50:57.731Z,1020.4
2019-01-19T03:51:57.941Z,1020.35
2019-01-19T03:52:57.863Z,1020.4
2019-01-19T03:53:57.698Z,1020.38
2019-01-19T03:54:57.550Z,1020.37
2019-01-19T03:55:57.579Z,1020.39
2019-01-19T03:56:57.594Z,1020.35
2019-01-19T03:57:57.504Z,1020.41
2019-01-19T03:58:57.581Z,1020.39
2019-01-19T03:59:57.735Z,1020.34
2019-01-19T04:00:57.867Z,1020.34
2019-01-19T04:01:57.697Z,1020.34
2019-01-19T04:02:57.555Z,1020.3
2019-01-19T04:03:57.790Z,1020.31
2019-01-19T04:04:57.672Z,1020.31
2019-01-19T04:05:57.630Z,1020.32
2019-01-19T04:06:57.692Z,1020.33
2019-01-19T04:07:57.525Z,1020.33
2019-01-19T04:08:57.901Z,1020.32
2019-01-19T04:09:57.424Z,1020.28
2019-01-19T04:10:59.431Z,1020.3
2019-01-19T04:11:58.617Z,1020.32
2019-01-19T04:12:57.765Z,1020.31
2019-01-19T04:13:57.837Z,1020.28
2019-01-19T04:14:58.563Z,1020.25
2019-01-19T04:15:57.629Z,1020.29
2019-01-19T04:16:57.851Z,1020.28
2019-01-19T04:17:57.857Z,1020.23
2019-01-19T04:18:57.688Z,1020.24
2019-01-19T04:19:57.799Z,1020.23
2019-01-19T04:20:57.600Z,1020.2
2019-01-19T04:21:57.504Z,1020.19
2019-01-19T04:22:57.914Z,1020.24
2019-01-19T04:23:57.553Z,1020.2
2019-01-19T04:24:57.718Z,1020.19
2019-01-19T04:25:57.492Z,1020.2
2019-01-19T04:26:57.653Z,1020.15
2019-01-19T04:27:57.772Z,1020.15
2019-01-19T04:28:57.693Z,1020.14
2019-01-19T04:29:59.466Z,1020.15
2019-01-19T04:30:57.378Z,1020.09
2019-01-19T04:31:57.903Z,1020.1
2019-01-19T04:32:57.550Z,1020.08
2019-01-19T04:33:57.759Z,1020.08
2019-01-19T04:34:57.537Z,1020.08
2019-01-19T04:35:58.016Z,1020.04
2019-01-19T04:36:57.696Z,1020.04
2019-01-19T04:37:57.501Z,1020.06
2019-01-19T04:38:57.800Z,1020.03
2019-01-19T04:39:57.555Z,1020.01
2019-01-19T04:40:58.055Z,1020.02
2019-01-19T04:41:57.557Z,1020
2019-01-19T04:42:57.661Z,1020.02
2019-01-19T04:43:57.847Z,1019.98
2019-01-19T04:44:57.644Z,1020.02
2019-01-19T04:45:57.499Z,1020.01
2019-01-19T04:46:57.682Z,1020.03
2019-01-19T04:47:57.877Z,1020
2019-01-19T04:48:59.296Z,1019.99
2019-01-19T04:49:57.648Z,1020
2019-01-19T04:50:57.899Z,1020
2019-01-19T04:51:57.720Z,1019.96
2019-01-19T04:52:57.573Z,1019.96
2019-01-19T04:53:57.542Z,1019.97
2019-01-19T04:54:57.744Z,1019.97
2019-01-19T04:55:57.634Z,1019.94
2019-01-19T04:56:57.898Z,1019.97
2019-01-19T04:57:57.571Z,1019.95
2019-01-19T04:58:57.756Z,1019.98
2019-01-19T04:59:58.491Z,1019.96
2019-01-19T05:00:57.710Z,1019.96
2019-01-19T05:01:57.865Z,1019.95
2019-01-19T05:02:57.495Z,1019.97
2019-01-19T05:03:57.836Z,1019.95
2019-01-19T05:04:57.905Z,1019.97
2019-01-19T05:05:57.923Z,1019.97
2019-01-19T05:06:57.310Z,1019.95
2019-01-19T05:07:57.762Z,1019.89
2019-01-19T05:08:57.663Z,1019.94
2019-01-19T05:09:57.726Z,1019.93
2019-01-19T05:10:57.645Z,1019.94
2019-01-19T05:11:57.599Z,1019.92
2019-01-19T05:12:57.698Z,1019.93
2019-01-19T05:13:57.584Z,1019.94
2019-01-19T05:14:57.667Z,1019.9
2019-01-19T05:15:57.389Z,1019.9
2019-01-19T05:16:57.731Z,1019.88
2019-01-19T05:17:57.581Z,1019.9
2019-01-19T05:18:57.297Z,1019.9
2019-01-19T05:19:57.608Z,1019.9
2019-01-19T05:20:57.558Z,1019.9
2019-01-19T05:21:57.665Z,1019.87
2019-01-19T05:22:57.634Z,1019.87
2019-01-19T05:23:57.728Z,1019.85
2019-01-19T05:24:57.601Z,1019.86
2019-01-19T05:25:57.460Z,1019.84
2019-01-19T05:26:57.500Z,1019.84
2019-01-19T05:27:57.745Z,1019.81
2019-01-19T05:28:57.336Z,1019.87
2019-01-19T05:29:57.534Z,1019.8
2019-01-19T05:30:59.493Z,1019.79
2019-01-19T05:31:57.648Z,1019.81
2019-01-19T05:32:58.019Z,1019.77
2019-01-19T05:33:57.564Z,1019.78
2019-01-19T05:34:57.361Z,1019.79
2019-01-19T05:35:57.954Z,1019.79
2019-01-19T05:36:57.459Z,1019.78
2019-01-19T05:37:57.521Z,1019.76
2019-01-19T05:38:57.837Z,1019.77
2019-01-19T05:39:57.746Z,1019.74
2019-01-19T05:40:57.636Z,1019.77
2019-01-19T05:41:57.483Z,1019.75
2019-01-19T05:42:57.498Z,1019.79
2019-01-19T05:43:57.976Z,1019.75
2019-01-19T05:44:57.368Z,1019.78
2019-01-19T05:45:57.603Z,1019.77
2019-01-19T05:46:57.832Z,1019.79
2019-01-19T05:47:57.616Z,1019.77
2019-01-19T05:48:58.027Z,1019.81
2019-01-19T05:49:57.521Z,1019.77
2019-01-19T05:50:57.421Z,1019.77
2019-01-19T05:51:57.511Z,1019.79
2019-01-19T05:52:57.927Z,1019.81
2019-01-19T05:53:57.720Z,1019.77
2019-01-19T05:54:57.740Z,1019.81
2019-01-19T05:55:57.795Z,1019.79
2019-01-19T05:56:57.937Z,1019.83
2019-01-19T05:57:57.770Z,1019.79
2019-01-19T05:58:59.367Z,1019.8
2019-01-19T05:59:57.578Z,1019.79
2019-01-19T06:00:57.683Z,1019.78
2019-01-19T06:01:57.406Z,1019.75
2019-01-19T06:02:57.604Z,1019.78
2019-01-19T06:03:57.514Z,1019.81
2019-01-19T06:04:57.552Z,1019.81
2019-01-19T06:05:57.906Z,1019.76
2019-01-19T06:06:57.601Z,1019.79
2019-01-19T06:07:57.302Z,1019.8
2019-01-19T06:08:57.944Z,1019.77
2019-01-19T06:09:59.318Z,1019.82
2019-01-19T06:10:58.879Z,1019.77
2019-01-19T06:11:57.974Z,1019.79
2019-01-19T06:12:57.618Z,1019.8
2019-01-19T06:13:57.401Z,1019.8
2019-01-19T06:14:57.556Z,1019.78
2019-01-19T06:15:57.324Z,1019.79
2019-01-19T06:16:57.703Z,1019.76
2019-01-19T06:17:57.587Z,1019.77
2019-01-19T06:18:57.844Z,1019.73
2019-01-19T06:19:57.448Z,1019.77
2019-01-19T06:20:57.920Z,1019.78
2019-01-19T06:21:57.358Z,1019.78
2019-01-19T06:22:57.758Z,1019.79
2019-01-19T06:23:57.707Z,1019.74
2019-01-19T06:24:57.599Z,1019.75
2019-01-19T06:25:57.467Z,1019.73
2019-01-19T06:26:57.724Z,1019.72
2019-01-19T06:27:57.543Z,1019.74
2019-01-19T06:28:59.279Z,1019.72
2019-01-19T06:29:57.544Z,1019.74
2019-01-19T06:30:57.349Z,1019.73
2019-01-19T06:31:57.716Z,1019.73
2019-01-19T06:32:57.819Z,1019.71
2019-01-19T06:33:57.500Z,1019.74
2019-01-19T06:34:59.230Z,1019.72
2019-01-19T06:35:57.729Z,1019.69
2019-01-19T06:36:57.588Z,1019.68
2019-01-19T06:37:57.413Z,1019.69
2019-01-19T06:38:57.460Z,1019.7
2019-01-19T06:39:57.571Z,1019.7
2019-01-19T06:40:57.743Z,1019.68
2019-01-19T06:41:58.070Z,1019.72
2019-01-19T06:42:58.067Z,1019.68
2019-01-19T06:43:57.301Z,1019.69
2019-01-19T06:44:57.452Z,1019.69
2019-01-19T06:45:57.410Z,1019.69
2019-01-19T06:46:57.918Z,1019.64
2019-01-19T06:47:58.685Z,1019.65
2019-01-19T06:48:57.724Z,1019.69
2019-01-19T06:49:57.705Z,1019.71
2019-01-19T06:50:57.626Z,1019.69
2019-01-19T06:51:57.628Z,1019.71
2019-01-19T06:52:57.769Z,1019.7
2019-01-19T06:54:02.108Z,1019.71
2019-01-19T06:54:57.635Z,1019.73
2019-01-19T06:55:57.562Z,1019.71
2019-01-19T06:56:57.586Z,1019.7
2019-01-19T06:57:57.680Z,1019.72
2019-01-19T06:58:57.578Z,1019.75
2019-01-19T06:59:57.588Z,1019.72
2019-01-19T07:00:57.711Z,1019.7
2019-01-19T07:01:57.559Z,1019.75
2019-01-19T07:02:57.316Z,1019.75
2019-01-19T07:03:57.342Z,1019.71
2019-01-19T07:04:57.559Z,1019.74
2019-01-19T07:05:57.735Z,1019.74
2019-01-19T07:07:03.244Z,1019.74
2019-01-19T07:07:57.677Z,1019.76
2019-01-19T07:08:57.834Z,1019.75
2019-01-19T07:09:57.412Z,1019.78
2019-01-19T07:10:57.526Z,1019.79
2019-01-19T07:11:57.470Z,1019.78
2019-01-19T07:12:57.892Z,1019.78
2019-01-19T07:13:59.285Z,1019.74
2019-01-19T07:14:57.467Z,1019.79
2019-01-19T07:15:57.830Z,1019.75
2019-01-19T07:16:57.822Z,1019.79
2019-01-19T07:17:57.799Z,1019.81
2019-01-19T07:18:57.749Z,1019.81
2019-01-19T07:19:58.413Z,1019.84
2019-01-19T07:20:57.569Z,1019.83
2019-01-19T07:21:58.393Z,1019.84
2019-01-19T07:22:57.902Z,1019.8
2019-01-19T07:23:57.868Z,1019.82
2019-01-19T07:24:57.538Z,1019.81
2019-01-19T07:25:57.596Z,1019.81
2019-01-19T07:26:58.204Z,1019.82
2019-01-19T07:27:57.834Z,1019.83
2019-01-19T07:28:57.372Z,1019.84
2019-01-19T07:29:57.467Z,1019.8
2019-01-19T07:30:57.487Z,1019.77
2019-01-19T07:31:57.420Z,1019.8
2019-01-19T07:32:57.653Z,1019.83
2019-01-19T07:33:57.532Z,1019.77
2019-01-19T07:34:57.744Z,1019.82
2019-01-19T07:35:57.652Z,1019.84
2019-01-19T07:36:57.783Z,1019.81
2019-01-19T07:37:57.592Z,1019.82
2019-01-19T07:38:57.465Z,1019.83
2019-01-19T07:39:57.707Z,1019.81
2019-01-19T07:40:57.613Z,1019.83
2019-01-19T07:41:57.771Z,1019.83
2019-01-19T07:42:57.645Z,1019.85
2019-01-19T07:43:58.212Z,1019.85
2019-01-19T07:44:57.737Z,1019.85
2019-01-19T07:45:57.462Z,1019.86
2019-01-19T07:46:58.044Z,1019.86
2019-01-19T07:47:58.059Z,1019.86
2019-01-19T07:48:57.922Z,1019.88
2019-01-19T07:49:57.725Z,1019.91
2019-01-19T07:50:57.760Z,1019.85
2019-01-19T07:51:57.545Z,1019.86
2019-01-19T07:52:57.940Z,1019.85
2019-01-19T07:53:57.364Z,1019.87
2019-01-19T07:54:58.675Z,1019.86
2019-01-19T07:55:57.804Z,1019.88
2019-01-19T07:56:57.811Z,1019.87
2019-01-19T07:57:57.871Z,1019.85
2019-01-19T07:58:57.531Z,1019.85
2019-01-19T07:59:57.523Z,1019.86
2019-01-19T08:00:57.394Z,1019.87
2019-01-19T08:01:57.399Z,1019.9
2019-01-19T08:02:57.519Z,1019.93
2019-01-19T08:03:57.368Z,1019.89
2019-01-19T08:04:57.486Z,1019.89
2019-01-19T08:05:57.581Z,1019.89
2019-01-19T08:06:57.488Z,1019.9
2019-01-19T08:07:57.610Z,1019.89
2019-01-19T08:08:57.873Z,1019.89
2019-01-19T08:09:57.813Z,1019.87
2019-01-19T08:10:57.373Z,1019.92
2019-01-19T08:11:57.380Z,1019.93
2019-01-19T08:12:58.344Z,1019.91
2019-01-19T08:13:57.724Z,1019.92
2019-01-19T08:14:57.571Z,1019.93
2019-01-19T08:15:57.641Z,1019.95
2019-01-19T08:16:57.496Z,1019.94
2019-01-19T08:17:57.235Z,1019.93
2019-01-19T08:18:57.573Z,1019.96
2019-01-19T08:19:57.728Z,1019.94
2019-01-19T08:20:58.110Z,1020.01
2019-01-19T08:21:57.809Z,1019.97
2019-01-19T08:22:57.524Z,1019.96
2019-01-19T08:23:57.906Z,1019.98
2019-01-19T08:24:57.363Z,1019.95
2019-01-19T08:25:57.452Z,1019.96
2019-01-19T08:26:57.924Z,1019.96
2019-01-19T08:27:57.625Z,1019.92
2019-01-19T08:28:57.813Z,1019.98
2019-01-19T08:29:57.954Z,1019.95
2019-01-19T08:30:57.637Z,1019.94
2019-01-19T08:31:57.470Z,1019.94
2019-01-19T08:32:57.942Z,1019.95
2019-01-19T08:33:57.358Z,1019.93
2019-01-19T08:34:57.667Z,1019.94
2019-01-19T08:35:57.652Z,1019.89
2019-01-19T08:36:57.624Z,1019.86
2019-01-19T08:37:57.906Z,1019.86
2019-01-19T08:38:57.724Z,1019.86
2019-01-19T08:39:57.374Z,1019.87
2019-01-19T08:40:57.456Z,1019.91
2019-01-19T08:41:57.704Z,1019.89
2019-01-19T08:42:57.286Z,1019.88
2019-01-19T08:43:57.643Z,1019.85
2019-01-19T08:44:57.734Z,1019.84
2019-01-19T08:45:57.429Z,1019.86
2019-01-19T08:46:57.650Z,1019.83
2019-01-19T08:47:57.731Z,1019.85
2019-01-19T08:48:57.287Z,1019.81
2019-01-19T08:49:57.576Z,1019.83
2019-01-19T08:50:57.567Z,1019.81
2019-01-19T08:51:57.599Z,1019.79
2019-01-19T08:52:57.257Z,1019.84
2019-01-19T08:53:57.521Z,1019.81
2019-01-19T08:54:58.579Z,1019.8
2019-01-19T08:55:57.697Z,1019.8
2019-01-19T08:56:58.028Z,1019.78
2019-01-19T08:57:57.451Z,1019.78
2019-01-19T08:58:57.330Z,1019.79
2019-01-19T08:59:57.428Z,1019.77
2019-01-19T09:00:57.851Z,1019.78
2019-01-19T09:01:57.358Z,1019.76
2019-01-19T09:02:58.380Z,1019.77
2019-01-19T09:03:59.346Z,1019.76
2019-01-19T09:04:57.407Z,1019.77
2019-01-19T09:05:57.955Z,1019.74
2019-01-19T09:06:57.397Z,1019.77
2019-01-19T09:07:57.333Z,1019.78
2019-01-19T09:08:57.361Z,1019.79
2019-01-19T09:09:57.371Z,1019.77
2019-01-19T09:10:57.124Z,1019.71
2019-01-19T09:11:57.715Z,1019.74
2019-01-19T09:12:57.811Z,1019.73
2019-01-19T09:13:57.330Z,1019.77
2019-01-19T09:14:57.293Z,1019.78
2019-01-19T09:15:57.373Z,1019.76
2019-01-19T09:16:58.349Z,1019.75
2019-01-19T09:17:58.231Z,1019.73
2019-01-19T09:18:57.712Z,1019.74
2019-01-19T09:19:57.711Z,1019.77
2019-01-19T09:20:57.440Z,1019.76
2019-01-19T09:21:57.415Z,1019.77
2019-01-19T09:22:57.832Z,1019.79
2019-01-19T09:23:58.296Z,1019.73
2019-01-19T09:24:57.546Z,1019.75
2019-01-19T09:25:58.333Z,1019.77
2019-01-19T09:26:57.736Z,1019.77
2019-01-19T09:27:57.964Z,1019.76
2019-01-19T09:28:57.438Z,1019.74
2019-01-19T09:29:57.782Z,1019.76
2019-01-19T09:30:57.499Z,1019.78
2019-01-19T09:31:57.780Z,1019.77
2019-01-19T09:32:57.787Z,1019.75
2019-01-19T09:33:57.390Z,1019.75
2019-01-19T09:34:57.508Z,1019.74
2019-01-19T09:35:57.499Z,1019.75
2019-01-19T09:36:57.376Z,1019.75
2019-01-19T09:37:58.795Z,1019.74
2019-01-19T09:38:57.996Z,1019.75
2019-01-19T09:39:57.821Z,1019.77
2019-01-19T09:41:01.350Z,1019.72
2019-01-19T09:41:57.310Z,1019.71
2019-01-19T09:42:57.717Z,1019.72
2019-01-19T09:43:58.079Z,1019.72
2019-01-19T09:44:57.433Z,1019.71
2019-01-19T09:45:57.367Z,1019.72
2019-01-19T09:46:58.135Z,1019.75
2019-01-19T09:47:58.699Z,1019.72
2019-01-19T09:48:57.638Z,1019.75
2019-01-19T09:49:57.515Z,1019.74
2019-01-19T09:50:57.763Z,1019.71
2019-01-19T09:51:57.618Z,1019.7
2019-01-19T09:52:58.228Z,1019.71
2019-01-19T09:53:57.422Z,1019.69
2019-01-19T09:54:59.683Z,1019.69
2019-01-19T09:55:57.659Z,1019.69
2019-01-19T09:56:57.682Z,1019.69
2019-01-19T09:57:58.001Z,1019.67
2019-01-19T09:58:58.069Z,1019.66
2019-01-19T09:59:57.814Z,1019.71
2019-01-19T10:01:00.119Z,1019.68
2019-01-19T10:01:57.881Z,1019.67
2019-01-19T10:02:57.689Z,1019.68
2019-01-19T10:03:57.665Z,1019.65
2019-01-19T10:04:57.654Z,1019.65
2019-01-19T10:05:57.608Z,1019.66
2019-01-19T10:06:57.746Z,1019.65
2019-01-19T10:07:57.397Z,1019.6
2019-01-19T10:08:57.241Z,1019.62
2019-01-19T10:09:57.461Z,1019.62
2019-01-19T10:10:57.538Z,1019.65
2019-01-19T10:11:59.451Z,1019.63
2019-01-19T10:12:57.406Z,1019.63
2019-01-19T10:13:57.790Z,1019.56
2019-01-19T10:14:57.828Z,1019.57
2019-01-19T10:15:57.728Z,1019.55
2019-01-19T10:16:57.214Z,1019.53
2019-01-19T10:17:57.410Z,1019.51
2019-01-19T10:18:57.494Z,1019.52
2019-01-19T10:19:57.348Z,1019.55
2019-01-19T10:20:57.294Z,1019.51
2019-01-19T10:21:57.414Z,1019.52
2019-01-19T10:22:57.598Z,1019.5
2019-01-19T10:23:57.391Z,1019.5
2019-01-19T10:24:57.365Z,1019.45
2019-01-19T10:25:57.537Z,1019.48
2019-01-19T10:26:57.790Z,1019.47
2019-01-19T10:27:57.657Z,1019.44
2019-01-19T10:28:57.566Z,1019.49
2019-01-19T10:29:57.212Z,1019.47
2019-01-19T10:30:57.709Z,1019.47
2019-01-19T10:31:57.682Z,1019.43
2019-01-19T10:32:57.656Z,1019.39
2019-01-19T10:33:57.594Z,1019.35
2019-01-19T10:34:57.519Z,1019.39
2019-01-19T10:35:57.622Z,1019.37
2019-01-19T10:36:58.153Z,1019.36
2019-01-19T10:37:58.004Z,1019.36
2019-01-19T10:38:57.613Z,1019.36
2019-01-19T10:39:57.563Z,1019.37
2019-01-19T10:40:57.999Z,1019.34
2019-01-19T10:41:57.606Z,1019.33
2019-01-19T10:42:57.367Z,1019.3
2019-01-19T10:43:57.639Z,1019.31
2019-01-19T10:44:57.683Z,1019.28
2019-01-19T10:45:57.833Z,1019.28
2019-01-19T10:46:57.876Z,1019.25
2019-01-19T10:47:57.642Z,1019.23
2019-01-19T10:48:57.434Z,1019.23
2019-01-19T10:49:57.722Z,1019.21
2019-01-19T10:50:57.411Z,1019.16
2019-01-19T10:51:59.840Z,1019.18
2019-01-19T10:52:57.527Z,1019.14
2019-01-19T10:53:57.683Z,1019.07
2019-01-19T10:54:57.640Z,1019.06
2019-01-19T10:55:57.793Z,1019.06
2019-01-19T10:56:57.471Z,1019.06
2019-01-19T10:57:57.357Z,1019.01
2019-01-19T10:58:57.790Z,1018.97
2019-01-19T10:59:57.613Z,1018.94
2019-01-19T11:00:57.652Z,1018.95
2019-01-19T11:01:57.910Z,1018.94
2019-01-19T11:02:58.011Z,1018.92
2019-01-19T11:03:57.325Z,1018.92
2019-01-19T11:04:58.374Z,1018.9
2019-01-19T11:05:57.671Z,1018.87
2019-01-19T11:06:57.752Z,1018.89
2019-01-19T11:08:04.276Z,1018.86
2019-01-19T11:08:57.249Z,1018.85
2019-01-19T11:09:58.367Z,1018.82
2019-01-19T11:10:57.823Z,1018.8
2019-01-19T11:11:57.339Z,1018.84
2019-01-19T11:12:58.001Z,1018.83
2019-01-19T11:13:57.327Z,1018.78
2019-01-19T11:14:59.526Z,1018.78
2019-01-19T11:15:57.456Z,1018.74
2019-01-19T11:16:57.623Z,1018.72
2019-01-19T11:17:57.504Z,1018.7
2019-01-19T11:18:57.904Z,1018.7
2019-01-19T11:19:57.278Z,1018.66
2019-01-19T11:20:57.798Z,1018.63
2019-01-19T11:21:57.347Z,1018.59
2019-01-19T11:22:58.119Z,1018.57
2019-01-19T11:23:57.376Z,1018.56
2019-01-19T11:24:57.162Z,1018.57
2019-01-19T11:25:57.942Z,1018.54
2019-01-19T11:26:57.851Z,1018.52
2019-01-19T11:27:57.919Z,1018.53
2019-01-19T11:28:57.952Z,1018.48
2019-01-19T11:29:57.370Z,1018.49
2019-01-19T11:30:57.697Z,1018.48
2019-01-19T11:31:58.369Z,1018.43
2019-01-19T11:32:58.207Z,1018.41
2019-01-19T11:33:57.457Z,1018.39
2019-01-19T11:34:57.397Z,1018.39
2019-01-19T11:35:57.578Z,1018.37
2019-01-19T11:36:57.803Z,1018.39
2019-01-19T11:37:57.367Z,1018.39
2019-01-19T11:38:57.648Z,1018.38
2019-01-19T11:39:57.797Z,1018.28
2019-01-19T11:40:57.871Z,1018.34
2019-01-19T11:41:57.859Z,1018.28
2019-01-19T11:42:58.012Z,1018.28
2019-01-19T11:43:58.027Z,1018.2
2019-01-19T11:44:57.344Z,1018.19
2019-01-19T11:45:57.775Z,1018.13
2019-01-19T11:46:58.132Z,1018.15
2019-01-19T11:47:57.345Z,1018.1
2019-01-19T11:48:57.146Z,1018.11
2019-01-19T11:49:57.635Z,1018.09
2019-01-19T11:50:57.659Z,1018.1
2019-01-19T11:51:57.607Z,1018.05
2019-01-19T11:52:57.626Z,1018.04
2019-01-19T11:53:57.634Z,1018.08
2019-01-19T11:54:57.685Z,1018.06
2019-01-19T11:55:58.016Z,1018.08
2019-01-19T11:56:57.374Z,1018.08
2019-01-19T11:57:57.732Z,1018.09
2019-01-19T11:58:57.974Z,1018.06
2019-01-19T11:59:57.402Z,1018.04
2019-01-19T12:00:57.493Z,1018.1
2019-01-19T12:01:57.314Z,1018.09
2019-01-19T12:02:57.404Z,1018.13
2019-01-19T12:03:57.771Z,1018.13
2019-01-19T12:04:57.203Z,1018.13
2019-01-19T12:05:57.819Z,1018.11
2019-01-19T12:06:58.395Z,1018.08
2019-01-19T12:07:58.197Z,1018.08
2019-01-19T12:08:57.873Z,1018.04